Time;durP1;ratioP1;P1;durP2;ratioP2;P2;SDS_P1;SDS_P2;PMS_P1;PMS_P2;Temp;Humidity;BMP_temperature;BMP_pressure;BME280_temperature;BME280_humidity;BME280_pressure;Samples;Min_cycle;Max_cycle;Signal;HPM_P1;HPM_P2
2022/03/09 00:01:59;;;;;;;38.20;17.40;;;;;;;-0.13;75.95;94815.59;5083249;28;20178;-83
2022/03/09 00:04:25;;;;;;;33.27;17.03;;;;;;;-0.46;75.74;94779.09;5102255;28;20213;-83
2022/03/09 00:06:50;;;;;;;37.70;17.20;;;;;;;-0.20;76.03;94822.31;5100221;28;20207;-83
2022/03/09 00:09:16;;;;;;;37.90;18.93;;;;;;;-0.48;76.33;94788.75;5096354;27;20202;-84
2022/03/09 00:11:42;;;;;;;37.00;18.40;;;;;;;-0.33;76.72;94801.97;5093240;28;20615;-83
2022/03/09 00:14:08;;;;;;;38.93;17.97;;;;;;;-0.15;76.24;94826.09;5091458;28;20169;-84
2022/03/09 00:16:34;;;;;;;33.67;16.87;;;;;;;-0.24;76.62;94829.56;5091614;28;20665;-84
2022/03/09 00:18:59;;;;;;;36.03;17.13;;;;;;;-0.43;76.83;94803.81;5092957;28;20154;-83
2022/03/09 00:21:25;;;;;;;36.57;18.30;;;;;;;-0.58;76.85;94788.00;5091561;28;20166;-84
2022/03/09 00:23:50;;;;;;;34.80;16.93;;;;;;;-0.61;76.91;94772.78;5091487;28;20190;-84
2022/03/09 00:26:15;;;;;;;36.77;17.17;;;;;;;-0.43;76.47;94829.66;5092863;28;20162;-84
2022/03/09 00:28:41;;;;;;;36.23;17.80;;;;;;;-0.70;77.02;94786.56;5091089;28;20268;-83
2022/03/09 00:31:07;;;;;;;37.73;16.97;;;;;;;-0.50;76.86;94829.44;5092030;28;20199;-84
2022/03/09 00:33:33;;;;;;;36.80;18.37;;;;;;;-0.69;77.65;94795.94;5092529;28;20166;-84
2022/03/09 00:35:58;;;;;;;40.20;19.37;;;;;;;-1.10;77.33;94750.72;5092706;28;20283;-84
2022/03/09 00:38:24;;;;;;;40.97;19.93;;;;;;;-1.18;77.84;94735.94;5091220;28;20197;-84
2022/03/09 00:40:50;;;;;;;37.50;19.60;;;;;;;-0.79;77.45;94769.34;5091101;28;20173;-84
2022/03/09 00:43:15;;;;;;;37.90;18.07;;;;;;;-0.95;77.02;94757.03;5092555;28;20153;-84
2022/03/09 00:45:41;;;;;;;37.60;18.00;;;;;;;-0.95;77.19;94749.28;5092297;28;20154;-84
2022/03/09 00:48:07;;;;;;;35.63;16.37;;;;;;;-0.55;76.27;94813.56;5091004;28;20185;-84
2022/03/09 00:50:32;;;;;;;35.70;17.30;;;;;;;-0.68;76.81;94782.06;5092278;28;20214;-84
2022/03/09 00:52:57;;;;;;;30.53;16.70;;;;;;;-0.93;77.26;94744.78;5092647;28;20158;-84
2022/03/09 00:55:23;;;;;;;36.77;18.13;;;;;;;-1.03;76.47;94728.53;5092575;28;20641;-84
2022/03/09 00:57:48;;;;;;;39.03;16.97;;;;;;;-0.67;75.88;94760.44;5092594;28;20166;-84
2022/03/09 01:00:14;;;;;;;30.37;16.23;;;;;;;-0.38;75.34;94805.03;5090893;28;20525;-84
2022/03/09 01:02:43;;;;;;;34.70;16.53;;;;;;;-0.60;74.96;94771.81;5092055;28;20569;-84
2022/03/09 01:05:09;;;;;;;34.67;16.57;;;;;;;-0.40;74.45;94781.06;5090641;28;20221;-84
2022/03/09 01:07:34;;;;;;;38.47;19.30;;;;;;;-0.69;74.48;94730.53;5090845;28;20627;-84
2022/03/09 01:10:00;;;;;;;43.70;20.23;;;;;;;-0.47;73.58;94756.78;5090731;28;20212;-84
2022/03/09 01:12:25;;;;;;;40.13;18.33;;;;;;;-0.48;74.08;94756.91;5091979;28;20181;-84
2022/03/09 01:14:50;;;;;;;45.57;18.80;;;;;;;-0.48;74.07;94752.56;5091845;28;20188;-84
2022/03/09 01:17:16;;;;;;;41.67;18.13;;;;;;;-0.49;73.35;94755.28;5091894;28;20188;-83
2022/03/09 01:19:41;;;;;;;40.13;19.20;;;;;;;-0.24;73.40;94795.13;5091871;28;20654;-83
2022/03/09 01:22:06;;;;;;;47.13;19.63;;;;;;;-0.65;73.44;94721.53;5092522;28;20162;-83
2022/03/09 01:24:32;;;;;;;45.33;19.53;;;;;;;-0.31;73.60;94770.81;5092307;28;20215;-84
2022/03/09 01:26:57;;;;;;;40.20;19.07;;;;;;;-0.28;73.66;94778.28;5091837;28;20540;-84
2022/03/09 01:29:23;;;;;;;34.30;15.63;;;;;;;-0.18;72.97;94785.03;5090512;28;20189;-84
2022/03/09 01:31:48;;;;;;;37.87;17.97;;;;;;;-0.21;73.56;94785.31;5092103;28;20672;-84
2022/03/09 01:34:13;;;;;;;38.43;17.83;;;;;;;-0.45;73.53;94747.09;5091749;28;20159;-83
2022/03/09 01:36:39;;;;;;;36.47;18.27;;;;;;;-0.44;72.46;94735.81;5090466;28;20178;-84
2022/03/09 01:39:05;;;;;;;36.70;16.73;;;;;;;-0.10;72.36;94794.63;5091799;28;20162;-85
2022/03/09 01:41:30;;;;;;;31.00;15.43;;;;;;;-0.56;72.65;94712.91;5092270;28;20158;-85
2022/03/09 01:44:10;;;;;;;31.33;14.30;;;;;;;-0.37;71.23;94741.19;5099909;28;20668;-84
2022/03/09 01:46:36;;;;;;;30.97;14.80;;;;;;;-0.43;71.62;94739.19;5100095;27;20182;-85
2022/03/09 01:49:03;;;;;;;28.93;15.33;;;;;;;-0.19;71.47;94796.31;5110870;28;20194;-85
2022/03/09 01:51:32;;;;;;;29.80;14.87;;;;;;;-0.58;71.54;94723.38;5106749;28;20192;-85
2022/03/09 01:53:58;;;;;;;29.17;15.40;;;;;;;-0.51;71.97;94745.09;5096294;28;20161;-85
2022/03/09 01:56:23;;;;;;;27.67;14.77;;;;;;;-0.50;72.43;94743.31;5094246;28;20181;-85
2022/03/09 01:58:49;;;;;;;29.63;14.90;;;;;;;-0.43;72.21;94746.94;5099377;28;20242;-85
2022/03/09 02:01:14;;;;;;;29.20;14.57;;;;;;;-0.57;72.58;94722.41;5108515;28;20188;-85
2022/03/09 02:03:39;;;;;;;27.10;14.60;;;;;;;-0.35;72.43;94759.16;5101660;28;20174;-84
2022/03/09 02:06:05;;;;;;;28.40;14.37;;;;;;;-0.44;71.71;94742.75;5097986;28;20181;-84
2022/03/09 02:11:15;;;;;;;28.23;14.43;;;;;;;-0.28;72.30;94765.34;5095300;28;20176;-84
2022/03/09 02:13:40;;;;;;;27.57;13.67;;;;;;;-0.48;71.70;94739.63;5095154;28;20651;-84
2022/03/09 02:16:06;;;;;;;26.73;14.13;;;;;;;-0.63;71.86;94717.84;5093936;28;20241;-85
2022/03/09 02:18:31;;;;;;;33.80;15.73;;;;;;;-0.24;71.99;94766.69;5093931;28;20157;-84
2022/03/09 02:21:02;;;;;;;29.87;14.47;;;;;;;-0.27;71.08;94756.66;5095156;28;20178;-85
2022/03/09 02:23:27;;;;;;;29.07;15.17;;;;;;;-0.47;71.25;94727.53;5093833;28;20170;-84
2022/03/09 02:25:52;;;;;;;28.37;15.27;;;;;;;-0.41;71.69;94745.03;5095588;28;20157;-84
2022/03/09 02:28:18;;;;;;;28.60;14.57;;;;;;;-0.39;71.60;94756.84;5095186;28;20165;-84
2022/03/09 02:30:43;;;;;;;32.93;15.40;;;;;;;-0.63;71.78;94704.09;5093693;28;20170;-83
2022/03/09 02:33:09;;;;;;;32.43;16.40;;;;;;;-0.11;71.41;94786.06;5095010;28;20626;-84
2022/03/09 02:35:35;;;;;;;32.77;15.73;;;;;;;-0.35;71.29;94759.97;5093533;28;20181;-84
2022/03/09 02:38:00;;;;;;;27.83;15.13;;;;;;;-0.20;71.64;94776.59;5094690;28;20158;-84
2022/03/09 02:40:26;;;;;;;30.57;16.30;;;;;;;-0.40;71.54;94742.28;5093426;28;20169;-84
2022/03/09 02:42:52;;;;;;;29.90;15.60;;;;;;;-0.53;71.36;94718.59;5095051;28;20184;-84
2022/03/09 02:45:18;;;;;;;29.80;17.13;;;;;;;-0.05;71.84;94798.38;5093146;28;20166;-84
2022/03/09 02:47:44;;;;;;;34.77;17.00;;;;;;;-0.21;71.72;94766.38;5093074;28;20185;-84
2022/03/09 02:50:10;;;;;;;28.67;15.50;;;;;;;-0.13;70.96;94789.75;5092938;28;20231;-84
2022/03/09 02:52:38;;;;;;;36.03;17.00;;;;;;;-0.09;71.43;94788.50;5094980;28;20232;-84
2022/03/09 02:55:04;;;;;;;30.17;15.10;;;;;;;-0.47;71.05;94730.09;5093698;28;20549;-84
2022/03/09 02:57:30;;;;;;;29.33;15.57;;;;;;;-0.12;70.81;94791.38;5093348;28;20182;-84
2022/03/09 02:59:55;;;;;;;30.50;16.23;;;;;;;-0.43;70.71;94760.69;5094628;28;20165;-86
2022/03/09 03:02:20;;;;;;;29.20;15.27;;;;;;;-0.52;72.00;94758.19;5094522;28;20249;-86
2022/03/09 03:04:46;;;;;;;31.00;15.57;;;;;;;-0.78;72.16;94707.16;5092756;28;20759;-86
2022/03/09 03:07:11;;;;;;;33.13;15.97;;;;;;;-0.27;72.47;94795.44;5094689;28;20176;-83
2022/03/09 03:09:37;;;;;;;32.63;16.50;;;;;;;-0.40;71.91;94768.16;5094447;28;20192;-83
2022/03/09 03:12:02;;;;;;;28.77;15.00;;;;;;;-0.60;71.82;94729.63;5094001;28;20170;-83
2022/03/09 03:14:28;;;;;;;32.27;16.57;;;;;;;-0.62;71.48;94729.81;5092682;28;20639;-83
2022/03/09 03:16:53;;;;;;;33.77;15.47;;;;;;;-0.42;71.20;94748.56;5094209;28;20157;-84
2022/03/09 03:19:18;;;;;;;29.77;14.80;;;;;;;-0.12;71.41;94801.72;5092526;28;20176;-83
2022/03/09 03:21:44;;;;;;;26.47;13.93;;;;;;;-0.74;71.00;94705.13;5094202;28;20154;-83
2022/03/09 03:24:09;;;;;;;30.47;14.80;;;;;;;-0.19;71.49;94798.09;5094160;28;20618;-83
2022/03/09 03:26:35;;;;;;;24.03;13.00;;;;;;;-0.58;70.92;94736.28;5093928;28;20231;-83
2022/03/09 03:29:00;;;;;;;28.23;13.80;;;;;;;-0.54;71.68;94740.22;5092418;28;20646;-83
2022/03/09 03:31:28;;;;;;;25.17;13.47;;;;;;;-0.69;71.26;94720.22;5093752;28;20163;-83
2022/03/09 03:33:53;;;;;;;27.20;14.27;;;;;;;-0.61;71.22;94744.34;5093925;28;20215;-82
2022/03/09 03:36:18;;;;;;;24.07;13.63;;;;;;;-0.22;71.33;94806.13;5093573;28;20170;-83
2022/03/09 03:38:44;;;;;;;27.67;14.77;;;;;;;-0.29;71.82;94797.34;5093556;28;20607;-83
2022/03/09 03:41:09;;;;;;;29.17;14.93;;;;;;;-0.52;71.67;94758.97;5092268;28;20181;-83
2022/03/09 03:43:35;;;;;;;25.00;12.63;;;;;;;-0.63;70.71;94740.28;5093836;28;20249;-83
2022/03/09 03:46:01;;;;;;;24.40;12.47;;;;;;;-0.58;70.92;94758.75;5092115;28;20609;-83
2022/03/09 03:48:26;;;;;;;26.90;13.77;;;;;;;-0.58;71.48;94756.16;5092144;28;20622;-83
2022/03/09 03:50:52;;;;;;;26.17;13.73;;;;;;;-0.54;71.42;94771.25;5092098;28;20631;-83
2022/03/09 03:53:17;;;;;;;24.83;13.30;;;;;;;-0.34;71.68;94789.19;5093384;28;20162;-84
2022/03/09 03:55:44;;;;;;;24.67;12.77;;;;;;;-0.73;71.15;94724.84;5093286;28;20158;-84
2022/03/09 03:58:10;;;;;;;22.97;13.13;;;;;;;-0.69;71.49;94733.91;5092193;28;20209;-84
2022/03/09 04:00:36;;;;;;;27.87;13.53;;;;;;;-0.24;70.66;94805.47;5093258;28;20166;-83
2022/03/09 04:03:01;;;;;;;28.07;13.80;;;;;;;-0.66;70.37;94736.22;5093435;28;20161;-82
2022/03/09 04:05:28;;;;;;;26.37;13.87;;;;;;;-0.50;70.97;94758.81;5090691;28;20229;-82
2022/03/09 04:07:53;;;;;;;39.47;18.70;;;;;;;-0.26;70.44;94804.81;5091761;28;20649;-83
2022/03/09 04:10:18;;;;;;;43.23;18.00;;;;;;;-0.31;70.71;94796.66;5091612;28;20189;-82
2022/03/09 04:12:44;;;;;;;42.47;20.13;;;;;;;-0.70;70.26;94745.22;5093172;28;20226;-82
2022/03/09 04:15:09;;;;;;;53.67;21.40;;;;;;;-0.64;70.82;94765.31;5093081;28;20628;-82
2022/03/09 04:17:43;;;;;;;87.60;30.10;;;;;;;-0.60;71.10;94758.06;5092809;28;20166;-82
2022/03/09 04:20:09;;;;;;;65.43;26.53;;;;;;;-0.61;71.39;94764.22;5093028;28;20165;-82
2022/03/09 04:22:35;;;;;;;64.17;25.33;;;;;;;-0.63;70.81;94761.78;5092767;28;20158;-82
2022/03/09 04:25:01;;;;;;;70.33;25.47;;;;;;;-0.69;70.57;94753.78;5092660;28;20169;-82
2022/03/09 04:27:26;;;;;;;66.50;25.53;;;;;;;-0.74;70.84;94743.06;5092705;28;20245;-82
2022/03/09 04:29:51;;;;;;;63.50;24.50;;;;;;;-0.71;71.01;94758.28;5092547;28;20648;-82
2022/03/09 04:32:17;;;;;;;51.97;21.97;;;;;;;-0.79;71.06;94733.19;5093210;28;20222;-82
2022/03/09 04:34:42;;;;;;;38.17;17.73;;;;;;;-0.49;70.65;94791.47;5091220;28;20197;-82
2022/03/09 04:37:07;;;;;;;32.23;16.67;;;;;;;-0.46;71.24;94796.38;5092726;28;20193;-82
2022/03/09 04:39:33;;;;;;;33.67;16.70;;;;;;;-0.89;71.10;94745.34;5100317;28;20222;-82
2022/03/09 04:41:58;;;;;;;37.97;16.23;;;;;;;-1.03;71.88;94725.13;5100803;28;20220;-82
2022/03/09 04:44:24;;;;;;;38.47;17.93;;;;;;;-1.00;70.97;94730.81;5101758;28;20603;-81
2022/03/09 04:46:49;;;;;;;42.07;21.23;;;;;;;-0.83;71.56;94755.91;5106733;28;20177;-82
2022/03/09 04:49:14;;;;;;;38.37;18.53;;;;;;;-0.53;71.38;94798.72;5112663;28;20184;-82
2022/03/09 04:51:40;;;;;;;46.47;20.20;;;;;;;-0.71;71.32;94784.94;5112700;28;20569;-83
2022/03/09 04:54:05;;;;;;;50.13;20.33;;;;;;;-0.86;71.45;94763.09;5112677;28;20157;-83
2022/03/09 04:56:31;;;;;;;56.57;18.80;;;;;;;-0.55;71.36;94815.31;5112548;28;20629;-83
2022/03/09 04:58:56;;;;;;;44.73;19.73;;;;;;;-0.87;71.95;94761.50;5112792;27;20211;-82
2022/03/09 05:01:21;;;;;;;36.23;18.17;;;;;;;-0.73;71.85;94761.00;5112877;28;20645;-82
2022/03/09 05:03:47;;;;;;;39.20;17.17;;;;;;;-0.52;70.59;94794.38;5111341;28;20222;-83
2022/03/09 05:06:13;;;;;;;52.43;20.77;;;;;;;-0.46;70.48;94814.47;5111070;28;20727;-82
2022/03/09 05:08:39;;;;;;;70.77;23.20;;;;;;;-0.45;70.83;94808.34;5111066;28;20300;-82
2022/03/09 05:11:04;;;;;;;63.13;23.13;;;;;;;-0.71;70.90;94764.28;5112637;28;20202;-83
2022/03/09 05:13:30;;;;;;;76.37;25.37;;;;;;;-0.34;71.34;94821.03;5107295;28;20196;-83
2022/03/09 05:15:55;;;;;;;50.90;21.87;;;;;;;-0.77;71.64;94760.47;5104645;28;20192;-82
2022/03/09 05:18:21;;;;;;;39.13;16.63;;;;;;;-0.36;72.04;94830.72;5105045;28;20188;-82
2022/03/09 05:20:47;;;;;;;46.17;18.03;;;;;;;-0.48;71.24;94812.00;5101781;28;20268;-82
2022/03/09 05:23:12;;;;;;;57.97;20.27;;;;;;;-0.93;71.17;94738.81;5097432;28;20670;-82
2022/03/09 05:25:38;;;;;;;95.20;26.87;;;;;;;-0.32;71.70;94828.66;5096198;28;20166;-83
2022/03/09 05:28:03;;;;;;;69.50;23.03;;;;;;;-0.65;70.78;94776.59;5100378;28;20178;-83
2022/03/09 05:30:29;;;;;;;48.83;20.47;;;;;;;-0.35;70.93;94818.63;5105812;28;20196;-83
2022/03/09 05:32:55;;;;;;;57.47;19.63;;;;;;;-0.21;70.75;94838.81;5109109;28;20206;-83
2022/03/09 05:35:21;;;;;;;77.27;26.13;;;;;;;-0.42;70.21;94795.09;5103142;28;20306;-83
2022/03/09 05:37:46;;;;;;;63.57;23.87;;;;;;;-0.20;70.19;94832.66;5116015;28;20215;-83
2022/03/09 05:40:13;;;;;;;44.27;20.33;;;;;;;-0.51;70.43;94770.94;5114713;28;20255;-83
2022/03/09 05:42:38;;;;;;;47.00;20.47;;;;;;;-0.07;69.75;94838.28;5115884;28;20840;-83
2022/03/09 05:45:05;;;;;;;40.03;18.83;;;;;;;0.08;69.63;94844.59;5114770;28;20268;-83
2022/03/09 05:47:31;;;;;;;34.50;16.93;;;;;;;0.16;69.21;94854.22;5116003;27;20234;-81
2022/03/09 05:49:56;;;;;;;38.97;18.47;;;;;;;0.25;69.21;94854.16;5116089;28;20185;-81
2022/03/09 05:52:22;;;;;;;30.60;15.37;;;;;;;0.09;68.94;94809.19;5114158;28;20185;-81
2022/03/09 05:54:47;;;;;;;31.33;15.53;;;;;;;0.20;67.49;94796.00;5099973;28;20173;-81
2022/03/09 05:57:13;;;;;;;33.97;17.10;;;;;;;0.91;66.72;94851.09;5102135;28;20641;-81
2022/03/09 05:59:39;;;;;;;37.43;19.03;;;;;;;1.54;66.58;94818.84;5109734;28;20171;-81
2022/03/09 06:02:04;;;;;;;42.27;21.10;;;;;;;2.99;62.60;94851.97;5109192;28;20259;-81
2022/03/09 06:04:30;;;;;;;37.77;20.40;;;;;;;4.13;58.66;94823.75;5107749;28;20213;-81
2022/03/09 06:06:55;;;;;;;33.13;18.83;;;;;;;5.13;55.35;94827.03;5109707;28;20202;-81
2022/03/09 06:09:20;;;;;;;31.63;17.73;;;;;;;6.31;52.04;94869.63;5105125;28;20197;-81
2022/03/09 06:11:46;;;;;;;36.37;17.90;;;;;;;6.88;49.39;94821.69;5107902;28;20191;-81
2022/03/09 06:14:11;;;;;;;30.87;17.13;;;;;;;7.55;47.66;94827.19;5105057;28;20177;-81
2022/03/09 06:16:37;;;;;;;31.13;15.17;;;;;;;8.00;45.45;94851.19;5113021;28;20201;-81
2022/03/09 06:19:02;;;;;;;28.90;15.90;;;;;;;8.27;45.56;94822.28;5114256;28;20529;-81
2022/03/09 06:21:27;;;;;;;46.00;26.13;;;;;;;8.91;43.92;94837.56;5115662;28;20169;-81
2022/03/09 06:23:53;;;;;;;34.27;17.27;;;;;;;9.57;42.65;94847.25;5114042;28;20661;-81
2022/03/09 06:26:19;;;;;;;23.70;14.37;;;;;;;10.08;41.34;94849.94;5115808;28;20176;-81
2022/03/09 06:28:44;;;;;;;24.83;14.33;;;;;;;10.51;40.25;94837.03;5114167;28;20669;-82
2022/03/09 06:31:10;;;;;;;21.53;13.00;;;;;;;10.98;38.18;94828.63;5115735;28;20196;-82
2022/03/09 06:33:36;;;;;;;22.50;13.87;;;;;;;11.82;37.81;94866.09;5115151;28;20571;-81
2022/03/09 06:36:02;;;;;;;23.03;13.47;;;;;;;12.46;35.45;94832.06;5115488;28;20157;-81
2022/03/09 06:38:28;;;;;;;24.33;14.60;;;;;;;13.10;33.89;94856.19;5115500;28;20157;-82
2022/03/09 06:40:53;;;;;;;29.40;16.13;;;;;;;13.81;32.76;94871.94;5115096;28;20165;-82
2022/03/09 06:43:18;;;;;;;22.87;15.47;;;;;;;13.59;31.64;94820.63;5113860;28;20165;-82
2022/03/09 06:45:44;;;;;;;23.70;14.50;;;;;;;14.02;30.75;94844.06;5115058;27;20165;-82
2022/03/09 06:48:10;;;;;;;22.73;14.57;;;;;;;14.50;30.32;94872.13;5114954;28;20165;-82
2022/03/09 06:50:35;;;;;;;23.30;14.70;;;;;;;14.67;29.98;94873.00;5115259;28;20213;-82
2022/03/09 06:53:01;;;;;;;24.33;15.57;;;;;;;14.55;29.85;94875.69;5103555;28;20207;-82
2022/03/09 06:55:26;;;;;;;20.93;13.70;;;;;;;14.31;29.66;94832.53;5103546;28;20176;-81
2022/03/09 06:57:52;;;;;;;23.93;14.73;;;;;;;14.27;29.47;94871.09;5105991;28;20169;-82
2022/03/09 07:00:19;;;;;;;21.57;13.87;;;;;;;13.21;30.96;94869.47;5108095;28;20185;-82
2022/03/09 07:02:45;;;;;;;21.90;14.53;;;;;;;11.72;32.90;94872.63;5113465;28;20170;-83
2022/03/09 07:05:11;;;;;;;23.40;14.27;;;;;;;10.41;34.56;94874.34;5114468;28;20227;-82
2022/03/09 07:07:38;;;;;;;25.27;14.87;;;;;;;9.33;36.47;94875.78;5114870;27;20149;-82
2022/03/09 07:10:05;;;;;;;27.10;14.77;;;;;;;8.19;39.35;94872.28;5114349;28;20197;-81
2022/03/09 07:12:31;;;;;;;23.10;14.50;;;;;;;7.05;41.45;94825.63;5113150;28;20169;-82
2022/03/09 07:14:56;;;;;;;23.53;13.80;;;;;;;6.65;41.97;94875.00;5114575;28;20211;-81
2022/03/09 07:17:22;;;;;;;27.07;15.33;;;;;;;5.78;43.47;94826.34;5114700;27;20226;-80
2022/03/09 07:19:47;;;;;;;26.83;15.47;;;;;;;5.40;45.49;94857.75;5113013;28;20211;-80
2022/03/09 07:22:13;;;;;;;26.70;15.93;;;;;;;4.99;47.43;94872.97;5114561;28;20204;-81
2022/03/09 07:24:38;;;;;;;30.03;16.60;;;;;;;4.96;48.64;94865.50;5112968;28;20204;-81
2022/03/09 07:27:04;;;;;;;28.47;16.40;;;;;;;5.57;47.02;94867.03;5114449;28;20232;-81
2022/03/09 07:29:29;;;;;;;28.80;14.03;;;;;;;6.57;45.04;94828.06;5114652;28;20196;-81
2022/03/09 07:31:54;;;;;;;35.23;20.23;;;;;;;7.41;42.68;94833.34;5104155;28;20665;-81
2022/03/09 07:34:22;;;;;;;21.83;12.77;;;;;;;8.39;41.56;94864.50;5100843;28;20582;-81
2022/03/09 07:36:51;;;;;;;23.07;14.33;;;;;;;8.85;39.79;94848.06;5106995;28;20627;-81
2022/03/09 07:39:18;;;;;;;30.67;16.87;;;;;;;9.21;40.43;94860.81;5104752;28;20169;-81
2022/03/09 07:41:44;;;;;;;21.17;12.43;;;;;;;9.06;39.48;94826.88;5113961;28;20161;-81
2022/03/09 07:44:09;;;;;;;22.43;13.13;;;;;;;9.03;39.69;94856.97;5113828;28;20234;-80
2022/03/09 07:46:35;;;;;;;25.73;15.53;;;;;;;8.81;40.86;94852.09;5105355;28;20173;-81
2022/03/09 07:49:01;;;;;;;26.67;16.30;;;;;;;8.16;41.52;94814.97;5099260;28;20197;-82
2022/03/09 07:51:26;;;;;;;25.00;14.13;;;;;;;7.84;41.58;94826.13;5101106;28;20180;-81
2022/03/09 07:53:52;;;;;;;27.80;13.60;;;;;;;7.46;41.82;94802.16;5107344;28;20169;-81
2022/03/09 07:56:22;;;;;;;25.03;15.07;;;;;;;7.15;43.03;94790.28;5113481;28;20165;-81
2022/03/09 07:58:47;;;;;;;25.07;13.20;;;;;;;7.14;43.90;94850.69;5112428;28;20169;-81
2022/03/09 08:01:13;;;;;;;25.63;14.17;;;;;;;6.25;44.16;94708.28;5113486;28;20683;-80
2022/03/09 08:03:39;;;;;;;24.57;13.93;;;;;;;6.85;44.96;94806.34;5113581;28;20161;-81
2022/03/09 08:06:04;;;;;;;24.80;13.77;;;;;;;6.92;44.75;94846.47;5113247;28;20225;-80
2022/03/09 08:08:30;;;;;;;20.07;12.33;;;;;;;6.75;44.99;94849.31;5113553;28;20153;-81
2022/03/09 08:10:55;;;;;;;29.47;13.27;;;;;;;6.62;45.29;94832.72;5113701;28;20618;-81
2022/03/09 08:13:21;;;;;;;23.67;13.80;;;;;;;6.38;45.78;94821.63;5113704;28;20221;-81
2022/03/09 08:15:46;;;;;;;27.43;14.63;;;;;;;6.39;46.52;94818.03;5113326;28;20165;-81
2022/03/09 08:18:12;;;;;;;32.40;15.40;;;;;;;6.33;47.78;94782.16;5112066;28;20670;-84
2022/03/09 08:20:37;;;;;;;29.90;15.27;;;;;;;6.65;46.63;94798.34;5113171;28;20191;-83
2022/03/09 08:23:03;;;;;;;31.97;15.80;;;;;;;6.52;45.16;94769.44;5111898;28;20204;-82
2022/03/09 08:25:28;;;;;;;29.13;16.03;;;;;;;6.74;46.33;94815.53;5113099;28;20176;-84
2022/03/09 08:27:54;;;;;;;27.27;14.67;;;;;;;6.56;46.31;94768.09;5113081;28;20160;-84
2022/03/09 08:30:20;;;;;;;25.33;14.30;;;;;;;7.10;46.37;94837.16;5105441;27;20189;-83
2022/03/09 08:32:45;;;;;;;24.27;13.63;;;;;;;7.10;45.84;94833.72;5104861;27;20829;-85
2022/03/09 08:35:11;;;;;;;23.40;13.10;;;;;;;6.76;46.27;94767.25;5099863;28;20170;-85
2022/03/09 08:37:36;;;;;;;29.50;15.50;;;;;;;7.13;45.66;94830.72;5100130;28;20204;-84
2022/03/09 08:40:03;;;;;;;26.17;14.10;;;;;;;7.27;46.41;94834.25;5103221;28;20650;-86
2022/03/09 08:42:29;;;;;;;26.13;14.70;;;;;;;6.84;45.19;94763.69;5097290;28;20209;-84
2022/03/09 08:44:55;;;;;;;27.57;14.40;;;;;;;6.87;45.31;94792.09;5099130;28;20272;-89
2022/03/09 08:47:20;;;;;;;26.50;13.47;;;;;;;6.64;46.51;94745.22;5102742;28;20220;-86
2022/03/09 08:49:46;;;;;;;24.27;14.50;;;;;;;6.46;45.16;94721.34;5103128;28;20714;-84
2022/03/09 08:52:11;;;;;;;29.20;14.57;;;;;;;6.67;45.47;94759.72;5099226;28;20192;-86
2022/03/09 08:54:38;;;;;;;27.33;14.87;;;;;;;6.98;46.63;94815.13;5105032;28;20263;-88
2022/03/09 08:57:04;;;;;;;22.70;13.03;;;;;;;7.19;47.09;94827.34;5104874;28;20192;-82
2022/03/09 08:59:30;;;;;;;21.07;12.47;;;;;;;7.41;45.30;94831.53;5097002;28;20569;-84
2022/03/09 09:01:55;;;;;;;22.70;12.37;;;;;;;7.52;46.16;94824.97;5095756;28;20181;-81
2022/03/09 09:04:22;;;;;;;26.47;14.47;;;;;;;7.59;44.87;94831.03;5101261;28;20189;-82
2022/03/09 09:06:48;;;;;;;24.07;13.33;;;;;;;7.69;45.32;94815.78;5106031;28;20173;-82
2022/03/09 09:09:14;;;;;;;25.53;14.67;;;;;;;8.01;46.11;94813.50;5102338;28;20254;-82
2022/03/09 09:11:40;;;;;;;23.67;14.63;;;;;;;8.31;44.86;94820.91;5101186;28;20161;-82
2022/03/09 09:14:06;;;;;;;26.50;14.03;;;;;;;8.43;43.43;94821.13;5098856;28;20197;-83
2022/03/09 09:16:32;;;;;;;29.17;14.37;;;;;;;8.39;44.38;94816.50;5099533;28;20191;-83
2022/03/09 09:18:57;;;;;;;21.47;13.13;;;;;;;8.40;44.58;94805.78;5101034;28;20177;-82
2022/03/09 09:21:23;;;;;;;23.23;13.03;;;;;;;8.28;44.29;94783.75;5104177;28;20161;-84
2022/03/09 09:23:48;;;;;;;21.20;12.57;;;;;;;8.56;43.32;94813.28;5098123;28;20690;-83
2022/03/09 09:26:15;;;;;;;19.20;11.30;;;;;;;8.03;42.87;94791.34;5098705;28;20191;-83
2022/03/09 09:28:41;;;;;;;21.60;12.13;;;;;;;8.18;44.00;94814.78;5104431;28;20181;-83
2022/03/09 09:31:07;;;;;;;25.60;14.70;;;;;;;7.84;43.30;94769.31;5101207;28;20260;-83
2022/03/09 09:33:32;;;;;;;25.97;14.27;;;;;;;7.41;43.94;94705.03;5101773;28;20224;-83
2022/03/09 09:35:57;;;;;;;20.93;12.70;;;;;;;7.62;44.80;94759.91;5096767;28;20189;-84
2022/03/09 09:38:23;;;;;;;23.80;13.77;;;;;;;8.07;44.13;94820.56;5097875;28;20169;-83
2022/03/09 09:40:53;;;;;;;25.93;14.83;;;;;;;8.09;45.18;94813.34;5097545;28;20593;-82
2022/03/09 09:43:19;;;;;;;19.13;12.03;;;;;;;7.83;44.62;94770.31;5103091;28;20252;-82
2022/03/09 09:45:44;;;;;;;19.80;11.80;;;;;;;8.08;45.06;94811.72;5101493;28;20318;-82
2022/03/09 09:48:11;;;;;;;20.87;11.80;;;;;;;7.67;43.56;94747.06;5098523;28;20257;-81
2022/03/09 09:50:39;;;;;;;18.07;12.07;;;;;;;8.21;44.79;94822.25;5094526;28;20268;-81
2022/03/09 09:53:06;;;;;;;17.43;11.10;;;;;;;8.24;43.68;94817.41;5101792;28;20314;-81
2022/03/09 09:55:33;;;;;;;20.13;10.70;;;;;;;7.97;43.56;94785.06;5102963;28;20185;-81
2022/03/09 09:57:59;;;;;;;20.10;11.53;;;;;;;7.80;44.10;94809.97;5101160;28;20177;-82
2022/03/09 10:00:25;;;;;;;15.37;9.57;;;;;;;7.62;42.87;94814.94;5104828;28;20261;-86
2022/03/09 10:02:51;;;;;;;17.37;11.17;;;;;;;7.10;44.77;94787.41;5099605;28;20193;-82
2022/03/09 10:05:18;;;;;;;19.77;10.87;;;;;;;6.62;44.78;94804.75;5099693;28;20221;-84
2022/03/09 10:08:02;;;;;;;20.93;11.27;;;;;;;6.46;46.38;94825.13;5102085;28;20336;-86
2022/03/09 10:10:28;;;;;;;19.47;11.00;;;;;;;6.37;46.43;94822.63;5106291;28;20284;-81
2022/03/09 10:13:17;;;;;;;19.50;11.13;;;;;;;6.04;47.03;94754.34;5109195;28;20302;-81
2022/03/09 10:15:44;;;;;;;23.33;12.40;;;;;;;6.51;47.73;94804.44;5098132;28;20855;-81
2022/03/09 10:18:20;;;;;;;23.67;12.50;;;;;;;6.55;48.16;94813.53;5108513;28;20385;-80
2022/03/09 10:20:47;;;;;;;22.57;11.77;;;;;;;6.58;47.32;94798.28;5108118;28;20211;-81
2022/03/09 10:23:14;;;;;;;19.17;10.83;;;;;;;6.78;48.40;94803.69;5104484;28;20188;-81
2022/03/09 10:25:40;;;;;;;23.83;12.50;;;;;;;6.79;48.50;94797.47;5103544;28;20634;-82
2022/03/09 10:28:08;;;;;;;20.30;11.07;;;;;;;6.88;48.24;94809.41;5103404;28;20827;-82
2022/03/09 10:30:36;;;;;;;21.33;11.43;;;;;;;6.85;48.52;94794.06;5105149;28;20192;-81
2022/03/09 10:33:08;;;;;;;17.27;9.57;;;;;;;6.87;45.95;94807.78;5103678;28;20166;-81
2022/03/09 10:35:34;;;;;;;17.73;10.73;;;;;;;6.80;47.26;94806.94;5108757;27;20181;-82
2022/03/09 10:38:01;;;;;;;17.60;10.17;;;;;;;6.51;47.11;94778.28;5103016;28;20556;-81
2022/03/09 10:40:29;;;;;;;27.93;12.57;;;;;;;6.47;48.78;94761.38;5102492;28;20177;-81
2022/03/09 10:43:21;;;;;;;28.23;15.43;;;;;;;6.70;48.27;94798.59;5105627;28;20226;-82
2022/03/09 10:46:08;;;;;;;20.30;12.10;;;;;;;6.79;49.31;94794.84;5107866;28;20182;-85
2022/03/09 10:48:49;;;;;;;19.00;9.83;;;;;;;6.69;47.20;94804.81;5096846;28;20256;-84
2022/03/09 10:51:34;;;;;;;19.57;10.20;;;;;;;6.72;49.30;94793.97;5095529;28;20184;-84
2022/03/09 10:54:07;;;;;;;27.03;13.10;;;;;;;6.43;48.88;94742.63;5100857;28;20182;-84
2022/03/09 10:56:34;;;;;;;27.83;14.27;;;;;;;6.65;48.20;94793.94;5094003;28;20180;-81
2022/03/09 10:59:21;;;;;;;27.47;14.07;;;;;;;6.48;48.59;94768.22;5103927;28;20183;-80
2022/03/09 11:02:09;;;;;;;16.13;9.63;;;;;;;6.51;47.71;94781.72;5107875;27;20190;-83
2022/03/09 11:04:36;;;;;;;21.20;10.10;;;;;;;6.47;47.65;94783.09;5098992;28;20297;-84
2022/03/09 11:07:02;;;;;;;21.47;11.37;;;;;;;6.45;48.79;94774.63;5101714;28;21215;-84
2022/03/09 11:09:29;;;;;;;18.60;10.50;;;;;;;6.41;47.19;94776.78;5101331;28;20198;-84
2022/03/09 11:11:55;;;;;;;20.60;11.27;;;;;;;6.03;49.96;94710.09;5098368;28;20638;-84
2022/03/09 11:14:26;;;;;;;22.70;11.40;;;;;;;6.47;47.43;94777.06;5092148;28;20262;-84
2022/03/09 11:16:57;;;;;;;23.50;12.37;;;;;;;5.96;47.97;94728.34;5101625;28;20173;-84
2022/03/09 11:19:23;;;;;;;20.40;10.30;;;;;;;6.10;48.02;94736.28;5099478;28;20195;-84
2022/03/09 11:21:49;;;;;;;29.57;10.60;;;;;;;5.98;48.35;94702.81;5095361;28;20162;-85